Manor Ridge, Pennsylvania
Current Conditions -  °F | °C
As of 10:53 PM on Wednesday 26 Nov 2014 (Local Time) from KLNS Reporting Station
Overcast Overcast  
Wind Chill: 27°   Ceiling: 6000
Heat Index: 34°   Visibility: 10mi
Dew Point: 30°   Wind: 9mph
Humidity: 85%   Direction: 280°W
Pressure: 29.94"   Gusts: NA
Location:  40.0115°N, 76.3553°W
Report Text: KLNS 270353Z AUTO 28008KT 10SM BKN060 BKN080 OVC100 01/M01 A2994 RMK AO2 SLP141 T00111011
Loading
Personal Weather Stations






























Interactive Weather Map New forecast layout! Learn more

10-Day Weather Forecast

Advertisements
Track Severe Weather on mobile